Time;durP1;ratioP1;P1;durP2;ratioP2;P2;SDS_P1;SDS_P2;PMS_P1;PMS_P2;Temp;Humidity;BMP_temperature;BMP_pressure;BME280_temperature;BME280_humidity;BME280_pressure;Samples;Min_cycle;Max_cycle;Signal;HPM_P1;HPM_P2
2021/11/18 00:00:25;;;;;;;50.60;18.58;;;;;;;1.44;70.07;99729.28;6247404;22;20395;-79
2021/11/18 00:02:52;;;;;;;49.92;19.67;;;;;;;1.34;70.19;99732.44;6227903;23;20095;-81
2021/11/18 00:05:20;;;;;;;53.00;18.58;;;;;;;1.25;70.31;99735.41;6192702;23;20044;-81
2021/11/18 00:07:48;;;;;;;51.15;19.83;;;;;;;1.34;70.13;99729.75;6167626;23;20024;-79
2021/11/18 00:10:17;;;;;;;52.33;19.48;;;;;;;1.32;70.18;99735.34;6220855;23;20483;-80
2021/11/18 00:12:45;;;;;;;48.80;17.35;;;;;;;1.29;70.13;99725.00;6192718;23;20020;-80
2021/11/18 00:15:13;;;;;;;48.75;19.15;;;;;;;1.22;70.36;99719.66;6248806;22;20472;-80
2021/11/18 00:17:40;;;;;;;44.92;18.17;;;;;;;1.30;70.01;99723.94;6253900;23;20020;-80
2021/11/18 00:20:10;;;;;;;53.03;18.40;;;;;;;1.23;70.19;99720.47;6221660;23;20024;-80
2021/11/18 00:22:36;;;;;;;46.85;18.83;;;;;;;1.22;70.24;99722.34;6246845;23;20050;-80
2021/11/18 00:25:05;;;;;;;50.10;18.90;;;;;;;1.26;70.10;99720.88;6217486;23;20363;-79
2021/11/18 00:27:31;;;;;;;50.17;19.63;;;;;;;1.33;69.80;99715.47;6217925;23;20031;-80
2021/11/18 00:29:57;;;;;;;67.05;20.45;;;;;;;1.37;69.85;99723.91;6252497;22;20027;-81
2021/11/18 00:32:23;;;;;;;58.60;19.85;;;;;;;1.36;69.93;99715.03;6220882;23;20020;-80
2021/11/18 00:34:51;;;;;;;54.20;21.15;;;;;;;1.44;69.70;99715.81;6227603;23;20333;-81
2021/11/18 00:37:17;;;;;;;60.33;22.08;;;;;;;1.39;69.93;99713.75;6247397;23;20074;-80
2021/11/18 00:39:44;;;;;;;52.08;20.90;;;;;;;1.33;69.72;99699.31;6252985;22;20337;-80
2021/11/18 00:42:10;;;;;;;56.10;20.75;;;;;;;1.30;70.04;99710.47;6221213;23;20047;-80
2021/11/18 00:44:36;;;;;;;56.92;20.10;;;;;;;1.34;69.97;99708.19;6217331;23;20081;-82
2021/11/18 00:47:02;;;;;;;55.70;20.25;;;;;;;1.38;69.81;99706.72;6220841;23;20020;-78
2021/11/18 00:49:29;;;;;;;46.70;18.88;;;;;;;1.34;69.59;99700.94;6254188;22;20028;-81
2021/11/18 00:51:56;;;;;;;55.88;20.08;;;;;;;1.26;69.51;99680.47;6192145;23;20020;-81
2021/11/18 00:54:24;;;;;;;48.50;19.27;;;;;;;1.26;69.37;99699.34;6192115;23;20046;-80
2021/11/18 00:56:50;;;;;;;52.17;19.63;;;;;;;1.20;69.27;99680.50;6222358;23;20020;-81
2021/11/18 00:59:17;;;;;;;56.83;18.48;;;;;;;1.26;69.38;99699.34;6227656;23;20024;-83
2021/11/18 01:01:45;;;;;;;51.60;18.30;;;;;;;1.24;69.32;99687.94;6248091;23;20349;-78
2021/11/18 01:04:14;;;;;;;51.35;18.70;;;;;;;1.17;69.31;99687.16;6227579;23;20020;-82
2021/11/18 01:06:40;;;;;;;54.63;20.08;;;;;;;1.16;69.16;99671.19;6191770;23;20353;-80
2021/11/18 01:09:08;;;;;;;52.35;18.95;;;;;;;1.23;68.99;99688.97;6227660;23;20035;-79
2021/11/18 01:11:34;;;;;;;53.58;18.23;;;;;;;1.24;68.89;99681.72;6222526;23;20016;-81
2021/11/18 01:14:04;;;;;;;48.10;17.25;;;;;;;1.21;68.69;99688.38;6226833;23;20426;-81
2021/11/18 01:16:34;;;;;;;46.63;15.82;;;;;;;1.00;68.33;99654.50;6223590;23;20368;-79
2021/11/18 01:19:01;;;;;;;44.63;15.60;;;;;;;1.08;68.46;99678.50;6192232;23;20028;-80
2021/11/18 01:21:30;;;;;;;46.60;16.48;;;;;;;1.00;68.24;99676.03;6192334;23;20360;-79
2021/11/18 01:23:57;;;;;;;45.65;16.77;;;;;;;0.97;68.18;99677.31;6251891;22;20031;-79
2021/11/18 01:26:37;;;;;;;43.70;15.82;;;;;;;0.84;68.14;99666.59;6190608;23;20162;-84
2021/11/18 01:29:04;;;;;;;;;;;;;;;0.92;67.83;99687.88;6227471;23;20107;-85
2021/11/18 01:31:31;;;;;;;43.70;16.02;;;;;;;0.88;67.67;99681.28;6242474;23;19919;-81
2021/11/18 01:33:59;;;;;;;48.17;15.88;;;;;;;0.80;67.40;99651.91;6252033;22;20452;-83
2021/11/18 01:36:28;;;;;;;41.00;14.52;;;;;;;0.89;67.12;99679.44;6216929;23;20019;-80
2021/11/18 01:39:04;;;;;;;43.72;14.35;;;;;;;0.77;67.11;99680.09;6226405;23;20077;-81
2021/11/18 01:41:31;;;;;;;49.90;15.98;;;;;;;0.83;66.77;99659.56;6216465;23;20500;-80
2021/11/18 01:44:02;;;;;;;41.58;15.60;;;;;;;0.82;66.75;99676.75;6226589;23;20094;-80
2021/11/18 01:46:32;;;;;;;47.03;15.25;;;;;;;0.76;66.60;99664.97;6217452;23;20473;-82
2021/11/18 01:49:00;;;;;;;49.85;15.20;;;;;;;0.82;66.70;99653.34;6216480;23;20064;-85
2021/11/18 01:51:29;;;;;;;;;;;;;;;0.79;66.64;99661.84;6224326;23;20103;-84
2021/11/18 01:53:57;;;;;;;45.17;14.95;;;;;;;0.66;66.51;99656.50;6202156;22;20341;-84
2021/11/18 01:56:25;;;;;;;44.78;14.63;;;;;;;0.65;66.15;99650.31;6222668;23;20511;-84
2021/11/18 01:58:55;;;;;;;44.65;14.18;;;;;;;0.75;66.24;99674.09;6226719;22;20024;-85
2021/11/18 02:01:32;;;;;;;50.80;14.93;;;;;;;0.71;65.88;99645.97;6248882;23;20039;-85
2021/11/18 02:03:59;;;;;;;47.97;14.63;;;;;;;0.75;65.74;99665.19;6252038;22;20020;-84
2021/11/18 02:06:43;;;;;;;46.80;15.57;;;;;;;0.70;65.71;99641.59;6216530;23;20046;-84
2021/11/18 02:09:14;;;;;;;52.83;17.13;;;;;;;0.57;65.53;99645.16;6175977;23;20032;-84
2021/11/18 02:11:43;;;;;;;41.35;15.05;;;;;;;0.59;65.50;99647.66;6211987;23;20020;-85
2021/11/18 02:14:15;;;;;;;44.17;16.08;;;;;;;0.64;65.27;99642.44;6225163;23;20039;-83
2021/11/18 02:16:45;;;;;;;44.70;14.52;;;;;;;0.63;64.68;99662.34;6221930;23;20044;-83
2021/11/18 02:19:13;;;;;;;41.65;13.90;;;;;;;0.46;64.46;99635.91;6191716;23;20475;-83
2021/11/18 02:21:44;;;;;;;;;;;;;;;0.42;64.40;99669.66;6191813;23;20032;-84
2021/11/18 02:24:17;;;;;;;40.38;13.13;;;;;;;0.40;64.25;99653.69;6191763;23;19919;-83
2021/11/18 02:26:47;;;;;;;33.38;11.68;;;;;;;0.21;64.17;99641.94;6221492;23;20074;-80
2021/11/18 02:29:14;;;;;;;41.78;13.85;;;;;;;0.26;64.20;99658.31;6216300;23;20655;-81
2021/11/18 02:31:43;;;;;;;37.13;13.48;;;;;;;0.35;64.08;99648.13;6249091;23;20344;-80
2021/11/18 02:34:14;;;;;;;39.65;13.00;;;;;;;0.20;64.07;99623.34;6226037;23;20027;-80
2021/11/18 02:36:42;;;;;;;39.15;13.13;;;;;;;0.17;63.89;99619.22;6222292;23;20373;-80
2021/11/18 02:39:09;;;;;;;41.20;12.90;;;;;;;0.34;63.93;99634.91;6241588;22;20047;-81
2021/11/18 02:41:40;;;;;;;35.95;13.27;;;;;;;0.09;63.57;99628.34;6191173;23;20063;-81
2021/11/18 02:44:06;;;;;;;38.70;13.30;;;;;;;0.01;63.30;99652.75;6191936;23;20024;-82
2021/11/18 02:46:33;;;;;;;41.50;14.25;;;;;;;-0.02;63.62;99629.81;6221678;23;20099;-84
2021/11/18 02:48:59;;;;;;;42.83;14.00;;;;;;;0.13;63.12;99621.50;6191268;23;20114;-80
2021/11/18 02:51:27;;;;;;;35.83;13.50;;;;;;;0.16;62.79;99624.78;6241096;23;20028;-82
2021/11/18 02:53:59;;;;;;;47.25;13.93;;;;;;;-0.02;62.88;99623.59;6191434;22;20028;-83
2021/11/18 02:56:28;;;;;;;;;;;;;;;-0.10;63.44;99648.81;6223600;23;20499;-83
2021/11/18 02:58:55;;;;;;;47.63;14.02;;;;;;;-0.04;63.14;99623.81;6253830;22;20272;-81
2021/11/18 03:01:24;;;;;;;38.92;14.40;;;;;;;-0.16;63.15;99622.78;6190241;23;20078;-84
2021/11/18 03:03:52;;;;;;;34.08;12.15;;;;;;;-0.41;63.51;99587.69;6216626;22;20044;-84
2021/11/18 03:06:19;;;;;;;36.17;13.63;;;;;;;-0.25;63.33;99587.25;6250662;23;20027;-84
2021/11/18 03:08:47;;;;;;;39.88;14.43;;;;;;;-0.29;63.48;99605.63;6215284;22;20158;-83
2021/11/18 03:11:19;;;;;;;41.20;13.85;;;;;;;-0.25;63.55;99599.84;6197451;23;20154;-84
2021/11/18 03:13:49;;;;;;;44.05;13.70;;;;;;;-0.34;63.68;99628.78;6191418;22;20143;-82
2021/11/18 03:16:17;;;;;;;41.75;14.75;;;;;;;-0.27;63.09;99612.66;6191158;23;20024;-83
2021/11/18 03:18:43;;;;;;;43.83;14.45;;;;;;;-0.17;63.39;99602.31;6253034;22;20046;-84
2021/11/18 03:21:13;;;;;;;42.65;13.77;;;;;;;-0.12;63.47;99594.44;6191090;23;20111;-82
2021/11/18 03:23:40;;;;;;;38.60;13.85;;;;;;;-0.34;63.20;99549.00;6190955;22;20096;-82
2021/11/18 03:26:13;;;;;;;40.63;13.85;;;;;;;-0.21;63.56;99604.59;6250659;23;20054;-81
2021/11/18 03:28:41;;;;;;;48.50;15.00;;;;;;;-0.31;63.44;99583.53;6217754;22;20020;-80
2021/11/18 03:31:10;;;;;;;54.70;14.32;;;;;;;-0.15;63.29;99602.94;6225753;23;20158;-80
2021/11/18 03:33:40;;;;;;;42.75;15.38;;;;;;;-0.01;62.98;99576.84;6227842;22;20020;-80
2021/11/18 03:36:09;;;;;;;47.60;14.88;;;;;;;-0.04;62.80;99574.59;6217931;23;20114;-79
2021/11/18 03:38:36;;;;;;;41.53;14.35;;;;;;;-0.04;63.22;99571.91;6227522;22;20020;-82
2021/11/18 03:41:17;;;;;;;43.25;14.65;;;;;;;-0.04;62.74;99582.66;6217911;23;20366;-84
2021/11/18 03:43:49;;;;;;;43.70;13.95;;;;;;;-0.11;62.61;99563.84;6192469;22;20024;-84
2021/11/18 03:46:19;;;;;;;40.38;14.52;;;;;;;0.05;62.73;99585.94;6250881;23;20024;-82
2021/11/18 03:48:45;;;;;;;43.25;14.80;;;;;;;-0.06;62.56;99576.66;6252075;22;20028;-82
2021/11/18 03:51:12;;;;;;;54.10;16.23;;;;;;;-0.10;63.11;99576.25;6193052;23;20035;-84
2021/11/18 03:53:41;;;;;;;36.55;13.90;;;;;;;-0.22;63.51;99578.75;6217750;22;20398;-82
2021/11/18 03:56:11;;;;;;;47.17;15.70;;;;;;;-0.29;63.33;99557.28;6225631;23;20024;-82
2021/11/18 03:58:39;;;;;;;47.85;16.08;;;;;;;-0.06;62.82;99555.16;6253296;22;20044;-85
2021/11/18 04:01:09;;;;;;;48.58;16.45;;;;;;;-0.29;62.94;99569.91;6216913;23;20521;-82
2021/11/18 04:03:36;;;;;;;46.58;16.55;;;;;;;-0.43;63.16;99577.97;6227809;22;20023;-82
2021/11/18 04:06:27;;;;;;;50.33;19.38;;;;;;;-0.33;63.00;99560.56;6197123;23;20105;-83
2021/11/18 04:09:01;;;;;;;48.75;17.02;;;;;;;-0.20;62.62;99571.31;6227756;23;20020;-83
2021/11/18 04:11:28;;;;;;;48.17;17.60;;;;;;;-0.18;62.42;99565.72;6249457;23;20020;-82
2021/11/18 04:13:58;;;;;;;51.28;16.60;;;;;;;-0.38;62.63;99553.16;6227986;23;20043;-84
2021/11/18 04:16:29;;;;;;;50.47;17.55;;;;;;;-0.33;62.37;99579.38;6192190;23;20086;-85
2021/11/18 04:18:55;;;;;;;54.97;16.95;;;;;;;-0.40;62.46;99560.59;6227275;22;20024;-85
2021/11/18 04:21:26;;;;;;;52.35;18.40;;;;;;;-0.55;62.94;99563.50;6192774;23;20020;-84
2021/11/18 04:23:52;;;;;;;47.47;18.48;;;;;;;-0.50;62.94;99571.75;6252600;22;20034;-84
2021/11/18 04:26:18;;;;;;;41.72;17.00;;;;;;;-0.39;62.60;99556.88;6250900;23;20028;-85
2021/11/18 04:28:46;;;;;;;48.03;18.05;;;;;;;-0.43;62.59;99575.28;6252933;22;20027;-85
2021/11/18 04:31:15;;;;;;;51.03;17.77;;;;;;;-0.47;62.47;99562.47;6225258;23;20023;-84
2021/11/18 04:33:43;;;;;;;56.65;18.52;;;;;;;-0.48;62.31;99555.44;6202738;22;20449;-83
2021/11/18 04:36:14;;;;;;;51.70;18.95;;;;;;;-0.57;62.50;99544.09;6225283;23;20044;-82
2021/11/18 04:38:43;;;;;;;55.72;18.80;;;;;;;-0.55;62.46;99541.16;6226558;22;20020;-82
2021/11/18 04:41:10;;;;;;;49.10;18.95;;;;;;;-0.46;62.49;99535.41;6250788;23;20051;-82
2021/11/18 04:43:40;;;;;;;45.13;17.38;;;;;;;-0.37;62.17;99536.00;6252404;22;20024;-82
2021/11/18 04:46:09;;;;;;;50.00;17.70;;;;;;;-0.40;62.17;99546.34;6191339;23;20110;-84
2021/11/18 04:48:38;;;;;;;47.67;17.88;;;;;;;-0.39;62.18;99538.09;6216802;22;20027;-83
2021/11/18 04:51:10;;;;;;;47.40;17.60;;;;;;;-0.47;62.37;99535.59;6225143;23;20047;-83
2021/11/18 04:53:37;;;;;;;46.33;16.77;;;;;;;-0.40;62.35;99530.22;6191697;22;20027;-83
2021/11/18 04:56:04;;;;;;;51.90;17.73;;;;;;;-0.38;62.33;99517.41;6217159;23;20111;-82
2021/11/18 04:58:39;;;;;;;50.78;18.45;;;;;;;-0.55;62.15;99514.31;6203732;22;20078;-81
2021/11/18 05:01:07;;;;;;;46.08;17.67;;;;;;;-0.39;62.11;99524.66;6216153;23;20036;-83
2021/11/18 05:03:34;;;;;;;50.65;18.10;;;;;;;-0.37;62.29;99508.31;6225382;23;20497;-83
2021/11/18 05:06:01;;;;;;;49.23;17.97;;;;;;;-0.29;62.14;99511.59;6225677;23;20016;-83
2021/11/18 05:08:28;;;;;;;48.60;18.75;;;;;;;-0.37;62.35;99501.09;6192043;23;20103;-83
2021/11/18 05:10:55;;;;;;;47.17;18.25;;;;;;;-0.39;62.14;99508.53;6191506;23;20026;-84
2021/11/18 05:13:24;;;;;;;51.92;19.20;;;;;;;-0.47;62.45;99517.63;6192132;23;20074;-84
2021/11/18 05:15:58;;;;;;;45.95;18.33;;;;;;;-0.41;62.67;99499.00;6226174;23;20051;-84
2021/11/18 05:18:28;;;;;;;47.42;18.35;;;;;;;-0.38;62.17;99506.66;6252088;23;20031;-84
2021/11/18 05:20:55;;;;;;;57.10;21.50;;;;;;;-0.64;62.71;99519.06;6191253;23;20031;-84
2021/11/18 05:23:22;;;;;;;58.20;20.17;;;;;;;-0.66;62.93;99518.47;6226265;23;20449;-85
2021/11/18 05:25:58;;;;;;;53.10;21.38;;;;;;;-0.68;63.04;99520.53;6191211;23;20445;-84
2021/11/18 05:28:25;;;;;;;63.17;22.40;;;;;;;-0.65;62.97;99504.84;6227011;23;20024;-84
2021/11/18 05:30:53;;;;;;;51.70;20.73;;;;;;;-0.66;63.03;99519.31;6224976;23;20397;-81
2021/11/18 05:33:20;;;;;;;65.17;22.57;;;;;;;-0.63;62.79;99518.88;6191458;23;20024;-82
2021/11/18 05:35:48;;;;;;;61.38;23.70;;;;;;;-0.75;63.10;99515.16;6226089;23;20027;-81
2021/11/18 05:38:15;;;;;;;64.60;23.05;;;;;;;-0.88;63.36;99484.59;6253925;23;20039;-82
2021/11/18 05:40:46;;;;;;;79.60;26.15;;;;;;;-0.87;63.37;99496.97;6215998;23;20034;-81
2021/11/18 05:43:19;;;;;;;70.03;26.03;;;;;;;-1.07;63.78;99483.59;6226984;23;20374;-81
2021/11/18 05:45:45;;;;;;;77.20;26.10;;;;;;;-1.07;63.86;99469.31;6251608;22;20353;-83
2021/11/18 05:48:15;;;;;;;68.95;27.40;;;;;;;-0.90;63.91;99500.09;6191693;23;20030;-82
2021/11/18 05:50:46;;;;;;;69.20;26.60;;;;;;;-0.88;63.68;99499.88;6216078;23;20028;-83
2021/11/18 05:53:20;;;;;;;65.83;26.17;;;;;;;-0.80;63.40;99485.44;6216526;23;20058;-84
2021/11/18 05:55:49;;;;;;;71.67;26.03;;;;;;;-0.67;63.05;99488.13;6226402;23;20024;-84
2021/11/18 05:58:15;;;;;;;75.10;25.33;;;;;;;-0.88;62.82;99455.06;6191365;23;20024;-82
2021/11/18 06:00:43;;;;;;;57.72;22.85;;;;;;;-0.87;62.22;99483.56;6215247;23;20035;-84
2021/11/18 06:03:09;;;;;;;62.90;24.10;;;;;;;-0.86;62.16;99498.66;6191803;23;20422;-82
2021/11/18 06:05:38;;;;;;;65.13;25.13;;;;;;;-0.88;62.30;99495.34;6252120;22;20111;-82
2021/11/18 06:08:04;;;;;;;66.73;25.03;;;;;;;-1.07;62.55;99499.69;6253597;23;20024;-83
2021/11/18 06:10:33;;;;;;;79.70;26.45;;;;;;;-0.99;62.44;99482.56;6215494;23;20031;-83
2021/11/18 06:13:00;;;;;;;;;;;;;;;-1.03;62.32;99489.34;6242239;23;20024;-84
2021/11/18 06:15:39;;;;;;;69.23;23.80;;;;;;;-0.86;62.01;99495.13;6229381;23;19930;-85
2021/11/18 06:18:10;;;;;;;71.10;26.42;;;;;;;-0.86;62.07;99477.19;6241272;23;20582;-83
2021/11/18 06:20:38;;;;;;;66.23;23.83;;;;;;;-0.77;61.65;99482.31;6251440;22;20030;-83
2021/11/18 06:23:07;;;;;;;70.00;25.10;;;;;;;-0.89;61.65;99460.66;6251887;23;20024;-85
2021/11/18 06:25:35;;;;;;;61.63;23.70;;;;;;;-0.76;61.74;99474.06;6191341;23;20050;-82
2021/11/18 06:28:03;;;;;;;72.13;24.52;;;;;;;-0.76;61.86;99481.28;6190891;23;20030;-81
2021/11/18 06:30:32;;;;;;;67.35;23.55;;;;;;;-0.75;61.73;99488.31;6226490;23;20047;-82
2021/11/18 06:33:01;;;;;;;58.30;22.30;;;;;;;-0.88;61.71;99487.28;6191447;23;20022;-79
2021/11/18 06:35:28;;;;;;;61.72;23.05;;;;;;;-1.07;61.68;99502.38;6251231;22;20024;-79
2021/11/18 06:37:57;;;;;;;55.92;21.05;;;;;;;-1.24;62.33;99479.66;6242720;23;20556;-78
2021/11/18 06:40:26;;;;;;;65.75;20.95;;;;;;;-1.46;62.03;99443.09;6227082;23;20114;-78
2021/11/18 06:42:52;;;;;;;57.08;21.77;;;;;;;-1.41;62.40;99501.47;6191324;23;20356;-78
2021/11/18 06:45:49;;;;;;;50.80;19.50;;;;;;;-1.49;62.65;99472.19;6224424;23;20024;-78
2021/11/18 06:48:19;;;;;;;47.07;18.47;;;;;;;-1.59;62.51;99459.16;6225286;23;20311;-78
2021/11/18 06:50:56;;;;;;;52.25;20.05;;;;;;;-1.71;63.22;99462.44;6215195;23;20493;-77
2021/11/18 06:53:22;;;;;;;61.77;22.27;;;;;;;-1.72;63.52;99473.34;6190300;23;20024;-77
2021/11/18 06:55:48;;;;;;;48.30;19.23;;;;;;;-1.59;63.26;99437.72;6224833;23;20479;-78
2021/11/18 06:58:15;;;;;;;58.58;20.23;;;;;;;-1.57;63.29;99475.88;6189659;23;20054;-77
2021/11/18 07:00:41;;;;;;;56.93;19.90;;;;;;;-1.62;63.42;99468.44;6215679;23;20024;-78
2021/11/18 07:03:09;;;;;;;47.17;19.03;;;;;;;-1.60;63.33;99481.66;6253891;23;20107;-77
2021/11/18 07:05:35;;;;;;;52.42;19.27;;;;;;;-1.80;64.07;99477.03;6252512;22;20020;-78
2021/11/18 07:08:03;;;;;;;45.27;18.27;;;;;;;-1.66;63.85;99432.34;6192856;23;20111;-79
2021/11/18 07:10:30;;;;;;;49.43;18.37;;;;;;;-1.70;64.15;99431.09;6225583;23;20592;-79
2021/11/18 07:13:11;;;;;;;50.03;19.27;;;;;;;-1.62;64.07;99452.34;6245051;23;20039;-78
2021/11/18 07:15:37;;;;;;;51.67;18.83;;;;;;;-1.50;63.70;99452.56;6255666;22;20070;-73
2021/11/18 07:18:09;;;;;;;49.43;17.37;;;;;;;-1.45;63.38;99434.03;6218135;23;20056;-74
2021/11/18 07:20:35;;;;;;;53.20;19.53;;;;;;;-1.52;63.74;99464.56;6228184;23;20047;-75
2021/11/18 07:23:03;;;;;;;48.53;19.63;;;;;;;-1.45;63.92;99434.03;6219003;23;20326;-74
2021/11/18 07:25:35;;;;;;;57.57;19.67;;;;;;;-1.49;64.04;99445.38;6193466;23;20822;-74
2021/11/18 07:28:02;;;;;;;44.90;17.10;;;;;;;-1.44;63.92;99432.16;6193578;23;20024;-74
2021/11/18 07:30:29;;;;;;;55.73;20.10;;;;;;;-1.39;63.84;99434.22;6192396;23;20024;-74
2021/11/18 07:32:55;;;;;;;50.53;17.70;;;;;;;-1.35;63.87;99438.97;6218474;23;20031;-74
2021/11/18 07:35:26;;;;;;;47.60;17.83;;;;;;;-1.46;63.89;99418.97;6218348;23;20048;-75
2021/11/18 07:38:12;;;;;;;44.53;18.00;;;;;;;-1.47;63.92;99436.09;6193333;23;20035;-86
2021/11/18 07:40:42;;;;;;;;;;;;;;;-1.52;64.46;99403.69;6218204;23;20028;-81
2021/11/18 07:43:22;;;;;;;50.30;18.17;;;;;;;-1.56;63.88;99383.69;6217918;23;19947;-79
2021/11/18 07:45:49;;;;;;;42.20;16.97;;;;;;;-1.48;64.04;99420.19;6245453;22;20353;-80
2021/11/18 07:48:26;;;;;;;48.97;17.33;;;;;;;-1.53;63.65;99388.63;6218481;23;20020;-79
2021/11/18 07:50:54;;;;;;;45.00;18.03;;;;;;;-1.42;63.49;99411.31;6226383;23;20611;-77
2021/11/18 07:53:24;;;;;;;52.10;18.20;;;;;;;-1.31;63.36;99409.91;6218477;23;20078;-76
2021/11/18 07:55:51;;;;;;;47.60;18.07;;;;;;;-1.38;63.52;99428.66;6216878;23;20111;-85
2021/11/18 07:58:18;;;;;;;51.05;19.00;;;;;;;-1.27;63.44;99392.34;6224701;23;20410;-80
2021/11/18 08:00:49;;;;;;;46.03;17.60;;;;;;;-1.27;63.55;99415.66;6243074;22;20095;-78
2021/11/18 08:03:36;;;;;;;48.03;19.00;;;;;;;-1.29;63.53;99405.97;6225411;22;20016;-86
2021/11/18 08:06:21;;;;;;;51.33;18.50;;;;;;;-1.20;63.52;99386.97;6224700;23;20067;-86
2021/11/18 08:08:55;;;;;;;49.73;18.53;;;;;;;-1.18;63.18;99382.22;6225320;22;20050;-77
2021/11/18 08:11:33;;;;;;;43.17;17.70;;;;;;;-1.25;63.28;99378.72;6243690;23;20338;-79
2021/11/18 08:14:00;;;;;;;47.07;17.87;;;;;;;-1.08;62.66;99379.97;6225826;23;20461;-74
2021/11/18 08:16:26;;;;;;;45.27;16.97;;;;;;;-1.13;62.47;99368.19;6224195;23;20048;-74
2021/11/18 08:19:01;;;;;;;51.80;18.63;;;;;;;-1.08;62.39;99384.47;6226950;23;20489;-74
2021/11/18 08:21:27;;;;;;;38.47;15.83;;;;;;;-1.21;62.24;99388.00;6223769;23;20047;-72
2021/11/18 08:23:58;;;;;;;40.90;17.67;;;;;;;-1.13;61.95;99374.38;6192011;22;20028;-74
2021/11/18 08:26:28;;;;;;;37.23;16.63;;;;;;;-1.16;61.64;99372.09;6217300;23;20020;-75
2021/11/18 08:28:55;;;;;;;43.40;15.93;;;;;;;-1.27;61.22;99378.94;6216262;22;20016;-74
2021/11/18 08:31:23;;;;;;;40.47;15.75;;;;;;;-1.22;60.78;99384.50;6223915;23;20027;-74
2021/11/18 08:34:25;;;;;;;39.93;15.67;;;;;;;-1.16;60.48;99361.38;6220001;23;20108;-74
2021/11/18 08:36:56;;;;;;;39.10;15.83;;;;;;;-1.06;60.19;99377.88;6221735;23;20031;-75
2021/11/18 08:39:25;;;;;;;41.05;16.10;;;;;;;-1.17;60.37;99367.78;6251238;22;20044;-74
2021/11/18 08:41:55;;;;;;;38.47;14.57;;;;;;;-1.10;60.02;99365.09;6221821;23;20027;-74
2021/11/18 08:44:24;;;;;;;40.33;16.67;;;;;;;-1.05;60.00;99378.69;6252063;22;20024;-74
2021/11/18 08:46:51;;;;;;;40.75;15.88;;;;;;;-1.04;60.13;99369.59;6246968;23;20027;-74
2021/11/18 08:49:19;;;;;;;41.50;16.63;;;;;;;-0.99;60.00;99340.28;6201516;23;20019;-73
2021/11/18 08:51:47;;;;;;;47.80;17.30;;;;;;;-0.89;60.11;99345.22;6221669;23;20069;-76
2021/11/18 08:54:16;;;;;;;41.40;16.23;;;;;;;-0.87;60.29;99361.94;6216778;23;20453;-79
2021/11/18 08:56:46;;;;;;;42.60;15.30;;;;;;;-0.92;60.15;99351.03;6216394;23;20031;-74
2021/11/18 08:59:16;;;;;;;32.53;14.30;;;;;;;-0.99;60.17;99342.97;6226594;23;20024;-79
2021/11/18 09:01:44;;;;;;;45.93;16.50;;;;;;;-1.00;60.14;99347.50;6197478;23;20074;-79
2021/11/18 09:04:15;;;;;;;42.03;16.70;;;;;;;-1.07;60.13;99333.28;6249549;22;20034;-80
2021/11/18 09:06:43;;;;;;;39.37;16.37;;;;;;;-1.01;59.87;99313.66;6222197;23;20024;-78
2021/11/18 09:09:12;;;;;;;39.77;16.00;;;;;;;-0.98;59.50;99352.69;6191231;23;20103;-79
2021/11/18 09:11:40;;;;;;;41.00;16.73;;;;;;;-1.09;58.86;99321.94;6197678;23;20019;-79
2021/11/18 09:14:10;;;;;;;36.60;15.10;;;;;;;-0.81;58.42;99328.88;6243392;22;20020;-80
2021/11/18 09:16:39;;;;;;;40.70;15.27;;;;;;;-0.76;57.74;99320.19;6216968;23;20023;-78
2021/11/18 09:19:16;;;;;;;40.77;16.03;;;;;;;-0.64;57.19;99313.13;6212593;23;20462;-79
2021/11/18 09:21:45;;;;;;;36.17;14.97;;;;;;;-0.69;57.18;99301.38;6218871;23;20025;-78
2021/11/18 09:24:17;;;;;;;40.10;16.10;;;;;;;-0.74;56.89;99318.13;6192238;23;20410;-78
2021/11/18 09:26:47;;;;;;;38.40;16.80;;;;;;;-0.77;57.20;99307.81;6248445;23;20154;-80
2021/11/18 09:29:20;;;;;;;41.07;15.83;;;;;;;-0.84;57.26;99302.44;6191432;23;20433;-78
2021/11/18 09:32:13;;;;;;;41.30;15.70;;;;;;;-0.88;57.40;99307.41;6211461;23;20500;-77
2021/11/18 09:34:44;;;;;;;37.33;14.93;;;;;;;-0.89;57.50;99310.31;6192223;23;20054;-77
2021/11/18 09:37:10;;;;;;;39.83;15.88;;;;;;;-0.89;57.76;99291.53;6217072;23;20051;-77
2021/11/18 09:39:38;;;;;;;40.00;15.82;;;;;;;-0.91;57.79;99289.06;6252814;22;20024;-76
2021/11/18 09:42:16;;;;;;;46.37;15.20;;;;;;;-1.06;57.92;99281.28;6211729;23;20031;-75
2021/11/18 09:45:00;;;;;;;41.50;15.83;;;;;;;-0.93;58.24;99295.69;6189169;23;20036;-76
2021/11/18 09:48:05;;;;;;;35.90;16.43;;;;;;;-0.92;57.93;99297.34;6218798;23;20051;-76
2021/11/18 09:50:49;;;;;;;36.97;17.17;;;;;;;-0.91;58.19;99283.69;6191631;23;20089;-76
2021/11/18 09:53:30;;;;;;;49.05;16.98;;;;;;;-0.98;58.32;99272.16;6227606;23;20020;-76
2021/11/18 09:56:08;;;;;;;40.37;15.50;;;;;;;-1.00;58.09;99276.91;6225081;23;20027;-75
2021/11/18 09:58:58;;;;;;;45.23;16.57;;;;;;;-0.97;57.96;99275.66;6216143;22;20024;-76
2021/11/18 10:02:06;;;;;;;41.10;15.67;;;;;;;-1.08;57.96;99259.19;6210284;23;20021;-76
2021/11/18 10:04:40;;;;;;;34.60;15.47;;;;;;;-1.15;57.67;99244.97;6156885;23;20445;-80
2021/11/18 10:07:17;;;;;;;36.50;15.37;;;;;;;-1.22;57.74;99250.34;6241098;23;20021;-78
2021/11/18 10:09:56;;;;;;;47.13;16.40;;;;;;;-1.11;57.62;99254.22;6248820;22;20024;-77
2021/11/18 10:12:34;;;;;;;39.45;16.23;;;;;;;-0.97;57.20;99259.56;6218687;23;20533;-72
2021/11/18 10:15:07;;;;;;;37.17;16.50;;;;;;;-0.89;57.01;99257.44;6226793;23;20024;-74
2021/11/18 10:17:36;;;;;;;39.30;15.50;;;;;;;-0.76;56.71;99256.59;6219643;23;20016;-74
2021/11/18 10:20:15;;;;;;;37.05;14.93;;;;;;;-0.85;56.42;99247.13;6226286;23;20028;-74
2021/11/18 10:22:45;;;;;;;35.90;16.10;;;;;;;-0.93;56.42;99280.41;6244870;23;20066;-75
2021/11/18 10:25:15;;;;;;;37.17;14.17;;;;;;;-0.57;56.19;99235.22;6216155;23;20066;-74
2021/11/18 10:27:44;;;;;;;37.57;15.77;;;;;;;-0.21;54.91;99233.72;6242556;23;20024;-73
2021/11/18 10:30:15;;;;;;;37.57;15.73;;;;;;;-0.21;54.95;99233.72;6241358;22;20398;-73
2021/11/18 10:32:54;;;;;;;37.20;15.73;;;;;;;-0.26;55.08;99238.94;6239855;23;20396;-74
2021/11/18 10:35:30;;;;;;;35.05;14.85;;;;;;;-0.43;55.16;99211.75;6226738;23;20078;-74
2021/11/18 10:38:22;;;;;;;40.67;14.98;;;;;;;-0.55;55.43;99226.91;6216734;23;20030;-73
2021/11/18 10:41:02;;;;;;;34.27;15.03;;;;;;;-0.55;55.77;99214.31;6238451;23;20028;-73
2021/11/18 10:43:31;;;;;;;36.17;14.17;;;;;;;-0.63;55.81;99201.97;6252511;23;20020;-74
2021/11/18 10:46:23;;;;;;;37.03;15.00;;;;;;;-0.74;55.98;99192.75;6190710;23;20070;-74
2021/11/18 10:48:57;;;;;;;37.83;14.40;;;;;;;-0.83;56.08;99196.72;6226401;22;20024;-73
2021/11/18 10:51:35;;;;;;;39.70;15.63;;;;;;;-0.75;56.10;99192.97;6250340;23;20024;-74
2021/11/18 10:54:04;;;;;;;38.10;15.80;;;;;;;-0.76;56.03;99218.16;6251814;22;20030;-75
2021/11/18 10:56:43;;;;;;;37.00;14.93;;;;;;;-0.79;56.05;99178.31;6191464;23;20032;-78
2021/11/18 10:59:13;;;;;;;33.33;14.63;;;;;;;-0.75;56.27;99172.31;6214894;23;20031;-79
2021/11/18 11:01:46;;;;;;;39.93;14.77;;;;;;;-1.02;56.20;99131.34;6240473;23;20044;-80
2021/11/18 11:04:34;;;;;;;34.63;15.10;;;;;;;-0.75;56.30;99176.84;6214255;23;20031;-79
2021/11/18 11:07:02;;;;;;;37.77;15.27;;;;;;;-0.79;56.56;99205.97;6246133;23;20024;-79
2021/11/18 11:09:32;;;;;;;35.80;15.27;;;;;;;-0.86;56.30;99155.03;6253223;22;20024;-79
2021/11/18 11:12:14;;;;;;;39.70;14.87;;;;;;;-0.77;56.46;99163.66;6248399;23;20453;-79
2021/11/18 11:14:53;;;;;;;35.10;14.27;;;;;;;-0.76;56.46;99148.34;6215973;23;20123;-79
2021/11/18 11:17:51;;;;;;;35.23;15.77;;;;;;;-0.78;56.75;99167.38;6244978;23;20016;-79
2021/11/18 11:20:24;;;;;;;37.23;14.87;;;;;;;-1.03;57.29;99157.38;6215496;23;20400;-79
2021/11/18 11:22:57;;;;;;;34.97;15.20;;;;;;;-0.96;57.23;99178.00;6216595;23;20107;-78
2021/11/18 11:25:51;;;;;;;34.20;15.77;;;;;;;-1.11;57.59;99154.94;6241457;22;20024;-79
2021/11/18 11:28:54;;;;;;;37.40;16.97;;;;;;;-0.99;57.55;99139.00;6225114;23;20017;-77
2021/11/18 11:31:33;;;;;;;38.73;16.80;;;;;;;-1.00;57.72;99159.63;6215168;23;20043;-79
2021/11/18 11:34:14;;;;;;;36.47;15.90;;;;;;;-1.20;58.55;99170.47;6225226;23;20016;-78
2021/11/18 11:36:49;;;;;;;30.83;15.07;;;;;;;-1.33;58.94;99154.41;6190733;23;20028;-78
2021/11/18 11:39:21;;;;;;;40.43;16.37;;;;;;;-1.33;58.79;99112.31;6225800;23;20456;-77